Las Vegas, Nevada
Current Conditions -  °F | °C
As of 8:56 AM on Sunday 21 Dec 2014 (Local Time) from KLAS Reporting Station
Broken Clouds Broken Clouds  
Wind Chill:   Ceiling: 25000
Heat Index:   Visibility: 10mi
Dew Point:   Wind: 5mph
Humidity: 66%   Direction: 210°SSW
Pressure: 30.12"   Gusts: NA
Location:  36.17°N, 115.13°W
Report Text: KLAS 211656Z 21004KT 10SM FEW100 BKN250 09/03 A3012 RMK AO2 SLP198 T00890028 $
Loading
Personal Weather Stations






























Interactive Weather Map New forecast layout! Learn more

10-Day Weather Forecast

Advertisements
Track Severe Weather on mobile